sensor_id;sensor_type;location;lat;lon;timestamp;temperature;humidity
52209;DHT22;38507;53.132;6.394;2023-03-21T00:02:01;8.70;99.90
52209;DHT22;38507;53.132;6.394;2023-03-21T00:04:27;9.20;99.90
52209;DHT22;38507;53.132;6.394;2023-03-21T00:06:53;8.70;99.90
52209;DHT22;38507;53.132;6.394;2023-03-21T00:09:19;8.70;99.90
52209;DHT22;38507;53.132;6.394;2023-03-21T00:11:45;8.70;99.90
52209;DHT22;38507;53.132;6.394;2023-03-21T00:14:11;8.70;99.90
52209;DHT22;38507;53.132;6.394;2023-03-21T00:16:39;8.80;99.90
52209;DHT22;38507;53.132;6.394;2023-03-21T00:19:05;8.80;99.90
52209;DHT22;38507;53.132;6.394;2023-03-21T00:21:32;8.70;99.90
52209;DHT22;38507;53.132;6.394;2023-03-21T00:23:59;8.70;99.90
52209;DHT22;38507;53.132;6.394;2023-03-21T00:26:25;8.80;99.90
52209;DHT22;38507;53.132;6.394;2023-03-21T00:28:51;8.80;99.90
52209;DHT22;38507;53.132;6.394;2023-03-21T00:31:17;8.80;99.90
52209;DHT22;38507;53.132;6.394;2023-03-21T00:33:43;8.80;99.90
52209;DHT22;38507;53.132;6.394;2023-03-21T00:36:09;8.70;99.90
52209;DHT22;38507;53.132;6.394;2023-03-21T00:38:36;8.70;99.90
52209;DHT22;38507;53.132;6.394;2023-03-21T00:41:07;8.70;99.90
52209;DHT22;38507;53.132;6.394;2023-03-21T00:43:33;8.80;99.90
52209;DHT22;38507;53.132;6.394;2023-03-21T00:45:58;8.80;99.90
52209;DHT22;38507;53.132;6.394;2023-03-21T00:48:25;8.80;99.90
52209;DHT22;38507;53.132;6.394;2023-03-21T00:50:53;9.10;99.90
52209;DHT22;38507;53.132;6.394;2023-03-21T00:53:20;8.70;99.90
52209;DHT22;38507;53.132;6.394;2023-03-21T00:55:46;8.80;99.90
52209;DHT22;38507;53.132;6.394;2023-03-21T00:58:12;9.30;99.90
52209;DHT22;38507;53.132;6.394;2023-03-21T01:00:37;8.70;99.90
52209;DHT22;38507;53.132;6.394;2023-03-21T01:03:07;9.00;99.90
52209;DHT22;38507;53.132;6.394;2023-03-21T01:05:37;8.80;99.90
52209;DHT22;38507;53.132;6.394;2023-03-21T01:08:22;8.70;99.90
52209;DHT22;38507;53.132;6.394;2023-03-21T01:10:49;8.70;99.90
52209;DHT22;38507;53.132;6.394;2023-03-21T01:13:17;8.80;99.90
52209;DHT22;38507;53.132;6.394;2023-03-21T01:15:52;9.50;99.90
52209;DHT22;38507;53.132;6.394;2023-03-21T01:18:20;8.90;99.90
52209;DHT22;38507;53.132;6.394;2023-03-21T01:20:47;8.80;99.90
52209;DHT22;38507;53.132;6.394;2023-03-21T01:23:14;9.10;99.90
52209;DHT22;38507;53.132;6.394;2023-03-21T01:25:40;8.80;99.90
52209;DHT22;38507;53.132;6.394;2023-03-21T01:28:06;8.80;99.90
52209;DHT22;38507;53.132;6.394;2023-03-21T01:30:32;8.80;99.90
52209;DHT22;38507;53.132;6.394;2023-03-21T01:32:58;8.80;99.90
52209;DHT22;38507;53.132;6.394;2023-03-21T01:35:24;9.10;99.90
52209;DHT22;38507;53.132;6.394;2023-03-21T01:37:50;8.80;99.90
52209;DHT22;38507;53.132;6.394;2023-03-21T01:40:34;8.80;99.90
52209;DHT22;38507;53.132;6.394;2023-03-21T01:43:00;8.80;99.90
52209;DHT22;38507;53.132;6.394;2023-03-21T01:48:29;8.80;99.90
52209;DHT22;38507;53.132;6.394;2023-03-21T01:50:55;8.80;99.90
52209;DHT22;38507;53.132;6.394;2023-03-21T01:53:25;8.80;99.90
52209;DHT22;38507;53.132;6.394;2023-03-21T01:56:05;8.80;99.90
52209;DHT22;38507;53.132;6.394;2023-03-21T01:58:32;8.80;99.90
52209;DHT22;38507;53.132;6.394;2023-03-21T02:00:59;8.90;99.90
52209;DHT22;38507;53.132;6.394;2023-03-21T02:03:28;8.80;99.90
52209;DHT22;38507;53.132;6.394;2023-03-21T02:06:01;8.80;99.90
52209;DHT22;38507;53.132;6.394;2023-03-21T02:08:29;8.90;99.90
52209;DHT22;38507;53.132;6.394;2023-03-21T02:10:55;8.80;99.90
52209;DHT22;38507;53.132;6.394;2023-03-21T02:13:21;9.00;99.90
52209;DHT22;38507;53.132;6.394;2023-03-21T02:16:33;8.80;99.90
52209;DHT22;38507;53.132;6.394;2023-03-21T02:19:15;8.80;99.90
52209;DHT22;38507;53.132;6.394;2023-03-21T02:27:22;8.90;99.90
52209;DHT22;38507;53.132;6.394;2023-03-21T02:35:52;8.90;99.90
52209;DHT22;38507;53.132;6.394;2023-03-21T02:38:35;8.90;99.90
52209;DHT22;38507;53.132;6.394;2023-03-21T02:41:31;8.90;99.90
52209;DHT22;38507;53.132;6.394;2023-03-21T02:47:02;8.90;99.90
52209;DHT22;38507;53.132;6.394;2023-03-21T02:52:37;8.90;99.90
52209;DHT22;38507;53.132;6.394;2023-03-21T02:55:05;8.90;99.90
52209;DHT22;38507;53.132;6.394;2023-03-21T02:57:39;8.90;99.90
52209;DHT22;38507;53.132;6.394;2023-03-21T03:00:07;9.40;99.90
52209;DHT22;38507;53.132;6.394;2023-03-21T03:02:37;8.90;99.90
52209;DHT22;38507;53.132;6.394;2023-03-21T03:05:16;8.90;99.90
52209;DHT22;38507;53.132;6.394;2023-03-21T03:08:01;8.90;99.90
52209;DHT22;38507;53.132;6.394;2023-03-21T03:18:38;8.90;99.90
52209;DHT22;38507;53.132;6.394;2023-03-21T03:24:02;8.90;99.90
52209;DHT22;38507;53.132;6.394;2023-03-21T03:29:14;8.90;99.90
52209;DHT22;38507;53.132;6.394;2023-03-21T03:31:48;9.40;99.90
52209;DHT22;38507;53.132;6.394;2023-03-21T03:34:21;9.30;99.90
52209;DHT22;38507;53.132;6.394;2023-03-21T03:36:50;8.90;99.90
52209;DHT22;38507;53.132;6.394;2023-03-21T03:39:24;9.00;99.90
52209;DHT22;38507;53.132;6.394;2023-03-21T03:42:01;9.30;99.90
52209;DHT22;38507;53.132;6.394;2023-03-21T03:44:28;9.00;99.90
52209;DHT22;38507;53.132;6.394;2023-03-21T03:47:01;9.00;99.90
52209;DHT22;38507;53.132;6.394;2023-03-21T03:49:38;9.60;99.90
52209;DHT22;38507;53.132;6.394;2023-03-21T03:52:13;9.00;99.90
52209;DHT22;38507;53.132;6.394;2023-03-21T03:54:44;8.90;99.90
52209;DHT22;38507;53.132;6.394;2023-03-21T03:57:11;9.20;99.90
52209;DHT22;38507;53.132;6.394;2023-03-21T03:59:40;9.40;99.90
52209;DHT22;38507;53.132;6.394;2023-03-21T04:02:07;9.00;99.90
52209;DHT22;38507;53.132;6.394;2023-03-21T04:04:33;9.00;99.90
52209;DHT22;38507;53.132;6.394;2023-03-21T04:06:59;9.00;99.90
52209;DHT22;38507;53.132;6.394;2023-03-21T04:09:28;9.00;99.90
52209;DHT22;38507;53.132;6.394;2023-03-21T04:11:55;9.00;99.90
52209;DHT22;38507;53.132;6.394;2023-03-21T04:14:21;9.50;99.90
52209;DHT22;38507;53.132;6.394;2023-03-21T04:16:46;9.20;99.90
52209;DHT22;38507;53.132;6.394;2023-03-21T04:19:13;9.00;99.90
52209;DHT22;38507;53.132;6.394;2023-03-21T04:21:40;9.00;99.90
52209;DHT22;38507;53.132;6.394;2023-03-21T04:24:06;9.00;99.90
52209;DHT22;38507;53.132;6.394;2023-03-21T04:26:32;9.00;99.90
52209;DHT22;38507;53.132;6.394;2023-03-21T04:28:59;9.00;99.90
52209;DHT22;38507;53.132;6.394;2023-03-21T04:31:26;8.90;99.90
52209;DHT22;38507;53.132;6.394;2023-03-21T04:33:53;9.00;99.90
52209;DHT22;38507;53.132;6.394;2023-03-21T04:36:20;9.00;99.90
52209;DHT22;38507;53.132;6.394;2023-03-21T04:38:56;9.20;99.90
52209;DHT22;38507;53.132;6.394;2023-03-21T04:41:28;9.20;99.90
52209;DHT22;38507;53.132;6.394;2023-03-21T04:43:54;9.00;99.90
52209;DHT22;38507;53.132;6.394;2023-03-21T04:46:21;8.90;99.90
52209;DHT22;38507;53.132;6.394;2023-03-21T04:48:47;9.00;99.90
52209;DHT22;38507;53.132;6.394;2023-03-21T04:51:16;9.00;99.90
52209;DHT22;38507;53.132;6.394;2023-03-21T04:53:42;8.90;99.90
52209;DHT22;38507;53.132;6.394;2023-03-21T04:56:10;8.90;99.90
52209;DHT22;38507;53.132;6.394;2023-03-21T04:58:36;8.90;99.90
52209;DHT22;38507;53.132;6.394;2023-03-21T05:01:03;8.90;99.90
52209;DHT22;38507;53.132;6.394;2023-03-21T05:03:30;8.90;99.90
52209;DHT22;38507;53.132;6.394;2023-03-21T05:06:02;9.40;99.90
52209;DHT22;38507;53.132;6.394;2023-03-21T05:08:27;9.00;99.90
52209;DHT22;38507;53.132;6.394;2023-03-21T05:10:53;8.90;99.90
52209;DHT22;38507;53.132;6.394;2023-03-21T05:13:19;8.90;99.90
52209;DHT22;38507;53.132;6.394;2023-03-21T05:15:45;8.90;99.90
52209;DHT22;38507;53.132;6.394;2023-03-21T05:18:10;9.50;99.90
52209;DHT22;38507;53.132;6.394;2023-03-21T05:20:40;8.90;99.90
52209;DHT22;38507;53.132;6.394;2023-03-21T05:23:09;8.90;99.90
52209;DHT22;38507;53.132;6.394;2023-03-21T05:25:39;8.90;99.90
52209;DHT22;38507;53.132;6.394;2023-03-21T05:28:06;9.00;99.90
52209;DHT22;38507;53.132;6.394;2023-03-21T05:30:32;8.90;99.90
52209;DHT22;38507;53.132;6.394;2023-03-21T05:32:58;8.90;99.90
52209;DHT22;38507;53.132;6.394;2023-03-21T05:35:25;8.90;99.90
52209;DHT22;38507;53.132;6.394;2023-03-21T05:37:51;8.90;99.90
52209;DHT22;38507;53.132;6.394;2023-03-21T05:40:18;9.00;99.90
52209;DHT22;38507;53.132;6.394;2023-03-21T05:42:45;9.00;99.90
52209;DHT22;38507;53.132;6.394;2023-03-21T05:45:12;9.10;99.90
52209;DHT22;38507;53.132;6.394;2023-03-21T05:47:37;8.90;99.90
52209;DHT22;38507;53.132;6.394;2023-03-21T05:50:04;9.00;99.90
52209;DHT22;38507;53.132;6.394;2023-03-21T05:52:29;9.00;99.90
52209;DHT22;38507;53.132;6.394;2023-03-21T05:54:56;9.00;99.90
52209;DHT22;38507;53.132;6.394;2023-03-21T05:57:22;9.00;99.90
52209;DHT22;38507;53.132;6.394;2023-03-21T05:59:47;9.00;99.90
52209;DHT22;38507;53.132;6.394;2023-03-21T06:02:13;9.00;99.90
52209;DHT22;38507;53.132;6.394;2023-03-21T06:04:39;9.00;99.90
52209;DHT22;38507;53.132;6.394;2023-03-21T06:07:04;9.00;99.90
52209;DHT22;38507;53.132;6.394;2023-03-21T06:09:30;9.00;99.90
52209;DHT22;38507;53.132;6.394;2023-03-21T06:11:56;9.00;99.90
52209;DHT22;38507;53.132;6.394;2023-03-21T06:14:23;9.00;99.90
52209;DHT22;38507;53.132;6.394;2023-03-21T06:16:49;9.20;99.90
52209;DHT22;38507;53.132;6.394;2023-03-21T06:19:15;9.10;99.90
52209;DHT22;38507;53.132;6.394;2023-03-21T06:21:41;9.00;99.90
52209;DHT22;38507;53.132;6.394;2023-03-21T06:24:07;9.30;99.90
52209;DHT22;38507;53.132;6.394;2023-03-21T06:26:33;9.00;99.90
52209;DHT22;38507;53.132;6.394;2023-03-21T06:28:59;9.00;99.90
52209;DHT22;38507;53.132;6.394;2023-03-21T06:31:24;9.00;99.90
52209;DHT22;38507;53.132;6.394;2023-03-21T06:33:51;9.10;99.90
52209;DHT22;38507;53.132;6.394;2023-03-21T06:36:17;9.20;99.90
52209;DHT22;38507;53.132;6.394;2023-03-21T06:38:43;9.00;99.90
52209;DHT22;38507;53.132;6.394;2023-03-21T06:41:11;9.10;99.90
52209;DHT22;38507;53.132;6.394;2023-03-21T06:43:37;9.10;99.90
52209;DHT22;38507;53.132;6.394;2023-03-21T06:46:03;9.10;99.90
52209;DHT22;38507;53.132;6.394;2023-03-21T06:48:30;9.10;99.90
52209;DHT22;38507;53.132;6.394;2023-03-21T06:50:56;9.10;99.90
52209;DHT22;38507;53.132;6.394;2023-03-21T06:53:22;9.10;99.90
52209;DHT22;38507;53.132;6.394;2023-03-21T06:55:53;9.60;99.90
52209;DHT22;38507;53.132;6.394;2023-03-21T06:58:19;9.70;99.90
52209;DHT22;38507;53.132;6.394;2023-03-21T07:00:45;9.10;99.90
52209;DHT22;38507;53.132;6.394;2023-03-21T07:03:11;9.40;99.90
52209;DHT22;38507;53.132;6.394;2023-03-21T07:05:38;9.20;99.90
52209;DHT22;38507;53.132;6.394;2023-03-21T07:08:05;9.20;99.90
52209;DHT22;38507;53.132;6.394;2023-03-21T07:10:38;9.20;99.90
52209;DHT22;38507;53.132;6.394;2023-03-21T07:13:03;9.20;99.90
52209;DHT22;38507;53.132;6.394;2023-03-21T07:15:29;9.20;99.90
52209;DHT22;38507;53.132;6.394;2023-03-21T07:17:55;9.20;99.90
52209;DHT22;38507;53.132;6.394;2023-03-21T07:20:21;9.20;99.90
52209;DHT22;38507;53.132;6.394;2023-03-21T07:22:47;9.20;99.90
52209;DHT22;38507;53.132;6.394;2023-03-21T07:25:12;9.60;99.90
52209;DHT22;38507;53.132;6.394;2023-03-21T07:27:38;9.30;99.90
52209;DHT22;38507;53.132;6.394;2023-03-21T07:30:04;9.20;99.90
52209;DHT22;38507;53.132;6.394;2023-03-21T07:32:34;9.30;99.90
52209;DHT22;38507;53.132;6.394;2023-03-21T07:35:02;9.30;99.90
52209;DHT22;38507;53.132;6.394;2023-03-21T07:37:28;9.30;99.90
52209;DHT22;38507;53.132;6.394;2023-03-21T07:39:54;9.30;99.90
52209;DHT22;38507;53.132;6.394;2023-03-21T07:42:20;9.30;99.90
52209;DHT22;38507;53.132;6.394;2023-03-21T07:44:45;9.60;99.90
52209;DHT22;38507;53.132;6.394;2023-03-21T07:47:11;9.30;99.90
52209;DHT22;38507;53.132;6.394;2023-03-21T07:49:37;9.30;99.90
52209;DHT22;38507;53.132;6.394;2023-03-21T07:52:04;9.30;99.90
52209;DHT22;38507;53.132;6.394;2023-03-21T07:54:29;9.30;99.90
52209;DHT22;38507;53.132;6.394;2023-03-21T07:56:55;9.40;99.90
52209;DHT22;38507;53.132;6.394;2023-03-21T07:59:22;9.40;99.90
52209;DHT22;38507;53.132;6.394;2023-03-21T08:01:48;9.40;99.90
52209;DHT22;38507;53.132;6.394;2023-03-21T08:04:13;9.40;99.90
52209;DHT22;38507;53.132;6.394;2023-03-21T08:06:39;9.40;99.90
52209;DHT22;38507;53.132;6.394;2023-03-21T08:09:05;9.60;99.90
52209;DHT22;38507;53.132;6.394;2023-03-21T08:11:31;9.40;99.90
52209;DHT22;38507;53.132;6.394;2023-03-21T08:13:57;9.40;99.90
52209;DHT22;38507;53.132;6.394;2023-03-21T08:16:23;9.40;99.90
52209;DHT22;38507;53.132;6.394;2023-03-21T08:18:49;10.10;99.90
52209;DHT22;38507;53.132;6.394;2023-03-21T08:21:15;9.40;99.90
52209;DHT22;38507;53.132;6.394;2023-03-21T08:23:40;9.80;99.90
52209;DHT22;38507;53.132;6.394;2023-03-21T08:26:06;9.40;99.90
52209;DHT22;38507;53.132;6.394;2023-03-21T08:28:32;9.40;99.90
52209;DHT22;38507;53.132;6.394;2023-03-21T08:30:58;9.40;99.90
52209;DHT22;38507;53.132;6.394;2023-03-21T08:33:23;9.90;99.90
52209;DHT22;38507;53.132;6.394;2023-03-21T08:35:49;9.80;99.90
52209;DHT22;38507;53.132;6.394;2023-03-21T08:38:15;9.40;99.90
52209;DHT22;38507;53.132;6.394;2023-03-21T08:40:41;9.40;99.90
52209;DHT22;38507;53.132;6.394;2023-03-21T08:43:07;9.40;99.90
52209;DHT22;38507;53.132;6.394;2023-03-21T08:45:32;9.40;99.90
52209;DHT22;38507;53.132;6.394;2023-03-21T08:47:58;9.40;99.90
52209;DHT22;38507;53.132;6.394;2023-03-21T08:50:25;9.70;99.90
52209;DHT22;38507;53.132;6.394;2023-03-21T08:52:53;9.40;99.90
52209;DHT22;38507;53.132;6.394;2023-03-21T08:55:19;9.60;99.90
52209;DHT22;38507;53.132;6.394;2023-03-21T08:57:45;9.40;99.90
52209;DHT22;38507;53.132;6.394;2023-03-21T09:00:14;9.50;99.90
52209;DHT22;38507;53.132;6.394;2023-03-21T09:02:43;9.50;99.90
52209;DHT22;38507;53.132;6.394;2023-03-21T09:05:10;9.50;99.90
52209;DHT22;38507;53.132;6.394;2023-03-21T09:07:40;9.90;99.90
52209;DHT22;38507;53.132;6.394;2023-03-21T09:10:08;9.60;99.90
52209;DHT22;38507;53.132;6.394;2023-03-21T09:12:34;9.40;99.90
52209;DHT22;38507;53.132;6.394;2023-03-21T09:15:00;9.70;99.90
52209;DHT22;38507;53.132;6.394;2023-03-21T09:17:28;9.40;99.90
52209;DHT22;38507;53.132;6.394;2023-03-21T09:19:53;9.70;99.90
52209;DHT22;38507;53.132;6.394;2023-03-21T09:22:19;9.90;99.90
52209;DHT22;38507;53.132;6.394;2023-03-21T09:24:46;9.70;99.90
52209;DHT22;38507;53.132;6.394;2023-03-21T09:27:15;9.50;99.90
52209;DHT22;38507;53.132;6.394;2023-03-21T09:29:48;9.50;99.90
52209;DHT22;38507;53.132;6.394;2023-03-21T09:32:14;9.50;99.90
52209;DHT22;38507;53.132;6.394;2023-03-21T09:34:42;9.70;99.90
52209;DHT22;38507;53.132;6.394;2023-03-21T09:37:09;9.50;99.90
52209;DHT22;38507;53.132;6.394;2023-03-21T09:39:41;9.50;99.90
52209;DHT22;38507;53.132;6.394;2023-03-21T09:42:37;9.50;99.90
52209;DHT22;38507;53.132;6.394;2023-03-21T09:45:26;9.50;99.90
52209;DHT22;38507;53.132;6.394;2023-03-21T09:47:56;9.50;99.90
52209;DHT22;38507;53.132;6.394;2023-03-21T09:50:30;9.50;99.90
52209;DHT22;38507;53.132;6.394;2023-03-21T09:53:16;9.90;99.90
52209;DHT22;38507;53.132;6.394;2023-03-21T09:55:46;9.50;99.90
52209;DHT22;38507;53.132;6.394;2023-03-21T09:58:43;9.50;99.90
52209;DHT22;38507;53.132;6.394;2023-03-21T10:01:28;9.50;99.90
52209;DHT22;38507;53.132;6.394;2023-03-21T10:04:01;9.60;99.90
52209;DHT22;38507;53.132;6.394;2023-03-21T10:06:29;9.60;99.90
52209;DHT22;38507;53.132;6.394;2023-03-21T10:09:10;9.50;99.90
52209;DHT22;38507;53.132;6.394;2023-03-21T10:11:47;9.50;99.90
52209;DHT22;38507;53.132;6.394;2023-03-21T10:14:57;9.50;99.90
52209;DHT22;38507;53.132;6.394;2023-03-21T10:17:33;9.50;99.90
52209;DHT22;38507;53.132;6.394;2023-03-21T10:22:39;9.50;99.90
52209;DHT22;38507;53.132;6.394;2023-03-21T10:25:06;9.70;99.90
52209;DHT22;38507;53.132;6.394;2023-03-21T10:27:34;9.60;99.90
52209;DHT22;38507;53.132;6.394;2023-03-21T10:30:02;10.00;99.90
52209;DHT22;38507;53.132;6.394;2023-03-21T10:32:30;9.60;99.90
52209;DHT22;38507;53.132;6.394;2023-03-21T10:34:56;10.10;99.90
52209;DHT22;38507;53.132;6.394;2023-03-21T10:37:23;9.70;99.90
52209;DHT22;38507;53.132;6.394;2023-03-21T10:39:51;10.00;99.90
52209;DHT22;38507;53.132;6.394;2023-03-21T10:42:21;10.30;99.90
52209;DHT22;38507;53.132;6.394;2023-03-21T10:44:50;9.90;99.90
52209;DHT22;38507;53.132;6.394;2023-03-21T10:47:28;9.90;99.90
52209;DHT22;38507;53.132;6.394;2023-03-21T10:49:56;10.40;99.90
52209;DHT22;38507;53.132;6.394;2023-03-21T10:52:27;10.10;99.90
52209;DHT22;38507;53.132;6.394;2023-03-21T10:55:24;10.50;99.90
52209;DHT22;38507;53.132;6.394;2023-03-21T10:58:01;10.20;99.90
52209;DHT22;38507;53.132;6.394;2023-03-21T11:00:34;10.40;99.90
52209;DHT22;38507;53.132;6.394;2023-03-21T11:03:01;10.30;99.90
52209;DHT22;38507;53.132;6.394;2023-03-21T11:05:36;10.40;99.90
52209;DHT22;38507;53.132;6.394;2023-03-21T11:08:10;10.40;99.90
52209;DHT22;38507;53.132;6.394;2023-03-21T11:10:52;10.50;99.90
52209;DHT22;38507;53.132;6.394;2023-03-21T11:13:27;10.50;99.90
52209;DHT22;38507;53.132;6.394;2023-03-21T11:16:07;11.00;99.90
52209;DHT22;38507;53.132;6.394;2023-03-21T11:18:39;10.70;99.90
52209;DHT22;38507;53.132;6.394;2023-03-21T11:21:09;10.70;99.90
52209;DHT22;38507;53.132;6.394;2023-03-21T11:23:40;11.10;99.90
52209;DHT22;38507;53.132;6.394;2023-03-21T11:26:10;10.80;99.90
52209;DHT22;38507;53.132;6.394;2023-03-21T11:28:39;10.90;99.90
52209;DHT22;38507;53.132;6.394;2023-03-21T11:31:07;10.80;99.90
52209;DHT22;38507;53.132;6.394;2023-03-21T11:33:36;10.90;99.90
52209;DHT22;38507;53.132;6.394;2023-03-21T11:36:05;10.80;99.90
52209;DHT22;38507;53.132;6.394;2023-03-21T11:38:36;10.90;99.90
52209;DHT22;38507;53.132;6.394;2023-03-21T11:41:03;10.90;99.90
52209;DHT22;38507;53.132;6.394;2023-03-21T11:43:31;11.00;99.90
52209;DHT22;38507;53.132;6.394;2023-03-21T11:46:08;11.00;99.90
52209;DHT22;38507;53.132;6.394;2023-03-21T11:48:45;11.00;99.90
52209;DHT22;38507;53.132;6.394;2023-03-21T12:00:12;11.10;99.90
52209;DHT22;38507;53.132;6.394;2023-03-21T12:05:38;11.10;99.90
52209;DHT22;38507;53.132;6.394;2023-03-21T12:08:18;11.50;99.90
52209;DHT22;38507;53.132;6.394;2023-03-21T12:11:10;11.10;99.90
52209;DHT22;38507;53.132;6.394;2023-03-21T12:13:52;11.00;99.90
52209;DHT22;38507;53.132;6.394;2023-03-21T12:19:12;11.00;99.90
52209;DHT22;38507;53.132;6.394;2023-03-21T12:22:06;11.00;99.90
52209;DHT22;38507;53.132;6.394;2023-03-21T12:24:52;11.00;99.90
52209;DHT22;38507;53.132;6.394;2023-03-21T12:27:48;11.00;99.90
52209;DHT22;38507;53.132;6.394;2023-03-21T12:30:41;11.00;99.90
52209;DHT22;38507;53.132;6.394;2023-03-21T12:38:58;11.00;99.90
52209;DHT22;38507;53.132;6.394;2023-03-21T12:42:04;11.00;99.90
52209;DHT22;38507;53.132;6.394;2023-03-21T12:44:36;11.00;99.90
52209;DHT22;38507;53.132;6.394;2023-03-21T12:47:11;11.00;99.90
52209;DHT22;38507;53.132;6.394;2023-03-21T12:52:39;11.10;99.90
52209;DHT22;38507;53.132;6.394;2023-03-21T12:55:24;11.10;99.90
52209;DHT22;38507;53.132;6.394;2023-03-21T12:58:00;11.20;99.90
52209;DHT22;38507;53.132;6.394;2023-03-21T13:00:38;11.20;99.90
52209;DHT22;38507;53.132;6.394;2023-03-21T13:03:11;11.20;99.90
52209;DHT22;38507;53.132;6.394;2023-03-21T13:05:47;11.30;99.90
52209;DHT22;38507;53.132;6.394;2023-03-21T13:10:48;11.50;99.90
52209;DHT22;38507;53.132;6.394;2023-03-21T13:13:30;11.50;99.90
52209;DHT22;38507;53.132;6.394;2023-03-21T13:16:16;11.50;99.90
52209;DHT22;38507;53.132;6.394;2023-03-21T13:24:47;11.90;99.90
52209;DHT22;38507;53.132;6.394;2023-03-21T13:27:31;11.90;99.90
52209;DHT22;38507;53.132;6.394;2023-03-21T13:30:17;11.90;99.90
52209;DHT22;38507;53.132;6.394;2023-03-21T13:32:45;11.90;99.90
52209;DHT22;38507;53.132;6.394;2023-03-21T13:38:23;12.00;99.90
52209;DHT22;38507;53.132;6.394;2023-03-21T13:41:04;11.90;99.90
52209;DHT22;38507;53.132;6.394;2023-03-21T13:54:14;12.00;99.90
52209;DHT22;38507;53.132;6.394;2023-03-21T14:04:42;11.80;99.90
52209;DHT22;38507;53.132;6.394;2023-03-21T14:07:12;12.20;99.90
52209;DHT22;38507;53.132;6.394;2023-03-21T14:09:45;12.00;99.90
52209;DHT22;38507;53.132;6.394;2023-03-21T14:12:26;12.10;99.90
52209;DHT22;38507;53.132;6.394;2023-03-21T14:15:06;12.40;99.90
52209;DHT22;38507;53.132;6.394;2023-03-21T14:17:34;12.60;99.90
52209;DHT22;38507;53.132;6.394;2023-03-21T14:20:01;12.50;99.90
52209;DHT22;38507;53.132;6.394;2023-03-21T14:22:34;12.80;99.90
52209;DHT22;38507;53.132;6.394;2023-03-21T14:25:01;12.60;99.90
52209;DHT22;38507;53.132;6.394;2023-03-21T14:27:30;12.50;99.90
52209;DHT22;38507;53.132;6.394;2023-03-21T14:29:57;12.50;99.90
52209;DHT22;38507;53.132;6.394;2023-03-21T14:32:25;12.60;99.90
52209;DHT22;38507;53.132;6.394;2023-03-21T14:34:53;12.60;99.90
52209;DHT22;38507;53.132;6.394;2023-03-21T14:37:28;12.60;99.90
52209;DHT22;38507;53.132;6.394;2023-03-21T14:39:59;12.60;99.90
52209;DHT22;38507;53.132;6.394;2023-03-21T14:42:26;12.70;99.90
52209;DHT22;38507;53.132;6.394;2023-03-21T14:44:52;12.70;99.90
52209;DHT22;38507;53.132;6.394;2023-03-21T14:47:25;12.50;99.90
52209;DHT22;38507;53.132;6.394;2023-03-21T14:49:52;12.60;99.90
52209;DHT22;38507;53.132;6.394;2023-03-21T14:52:31;12.50;99.90
52209;DHT22;38507;53.132;6.394;2023-03-21T14:54:59;12.50;99.90
52209;DHT22;38507;53.132;6.394;2023-03-21T14:57:28;12.50;99.90
52209;DHT22;38507;53.132;6.394;2023-03-21T14:59:58;12.60;99.90
52209;DHT22;38507;53.132;6.394;2023-03-21T15:02:29;12.50;99.90
52209;DHT22;38507;53.132;6.394;2023-03-21T15:04:57;12.40;99.90
52209;DHT22;38507;53.132;6.394;2023-03-21T15:07:34;12.30;99.90
52209;DHT22;38507;53.132;6.394;2023-03-21T15:10:14;12.30;99.90
52209;DHT22;38507;53.132;6.394;2023-03-21T15:12:56;12.20;99.90
52209;DHT22;38507;53.132;6.394;2023-03-21T15:15:23;12.20;99.90
52209;DHT22;38507;53.132;6.394;2023-03-21T15:17:50;12.20;99.90
52209;DHT22;38507;53.132;6.394;2023-03-21T15:20:21;12.50;99.90
52209;DHT22;38507;53.132;6.394;2023-03-21T15:22:52;12.10;99.90
52209;DHT22;38507;53.132;6.394;2023-03-21T15:25:22;12.10;99.90
52209;DHT22;38507;53.132;6.394;2023-03-21T15:27:50;12.10;99.90
52209;DHT22;38507;53.132;6.394;2023-03-21T15:30:28;12.00;99.90
52209;DHT22;38507;53.132;6.394;2023-03-21T15:32:55;12.00;99.90
52209;DHT22;38507;53.132;6.394;2023-03-21T15:35:33;12.00;99.90
52209;DHT22;38507;53.132;6.394;2023-03-21T15:38:00;12.00;99.90
52209;DHT22;38507;53.132;6.394;2023-03-21T15:40:28;12.00;99.90
52209;DHT22;38507;53.132;6.394;2023-03-21T15:43:05;11.90;99.90
52209;DHT22;38507;53.132;6.394;2023-03-21T15:45:31;11.90;99.90
52209;DHT22;38507;53.132;6.394;2023-03-21T15:48:05;11.90;99.90
52209;DHT22;38507;53.132;6.394;2023-03-21T15:50:36;11.90;99.90
52209;DHT22;38507;53.132;6.394;2023-03-21T15:53:12;11.90;99.90
52209;DHT22;38507;53.132;6.394;2023-03-21T15:55:47;11.90;99.90
52209;DHT22;38507;53.132;6.394;2023-03-21T15:58:21;11.90;99.90
52209;DHT22;38507;53.132;6.394;2023-03-21T16:00:53;11.90;99.90
52209;DHT22;38507;53.132;6.394;2023-03-21T16:03:25;11.80;99.90
52209;DHT22;38507;53.132;6.394;2023-03-21T16:13:47;11.90;99.90
52209;DHT22;38507;53.132;6.394;2023-03-21T16:16:24;11.70;99.90
52209;DHT22;38507;53.132;6.394;2023-03-21T16:18:51;11.70;99.90
52209;DHT22;38507;53.132;6.394;2023-03-21T16:21:21;11.70;99.90
52209;DHT22;38507;53.132;6.394;2023-03-21T16:23:48;11.60;99.90
52209;DHT22;38507;53.132;6.394;2023-03-21T16:26:20;11.80;99.90
52209;DHT22;38507;53.132;6.394;2023-03-21T16:28:47;11.50;99.90
52209;DHT22;38507;53.132;6.394;2023-03-21T16:31:16;11.50;99.90
52209;DHT22;38507;53.132;6.394;2023-03-21T16:33:42;11.40;99.90
52209;DHT22;38507;53.132;6.394;2023-03-21T16:36:13;11.40;99.90
52209;DHT22;38507;53.132;6.394;2023-03-21T16:38:42;11.30;99.90
52209;DHT22;38507;53.132;6.394;2023-03-21T16:41:12;11.10;99.90
52209;DHT22;38507;53.132;6.394;2023-03-21T16:43:39;11.00;99.90
52209;DHT22;38507;53.132;6.394;2023-03-21T16:46:24;11.10;99.90
52209;DHT22;38507;53.132;6.394;2023-03-21T16:48:52;11.20;99.90
52209;DHT22;38507;53.132;6.394;2023-03-21T16:51:30;10.80;99.90
52209;DHT22;38507;53.132;6.394;2023-03-21T16:53:56;10.70;99.90
52209;DHT22;38507;53.132;6.394;2023-03-21T16:56:28;10.70;99.90
52209;DHT22;38507;53.132;6.394;2023-03-21T16:58:55;10.70;99.90
52209;DHT22;38507;53.132;6.394;2023-03-21T17:01:22;10.60;99.90
52209;DHT22;38507;53.132;6.394;2023-03-21T17:03:52;10.60;99.90
52209;DHT22;38507;53.132;6.394;2023-03-21T17:06:21;11.10;99.90
52209;DHT22;38507;53.132;6.394;2023-03-21T17:08:47;11.10;99.90
52209;DHT22;38507;53.132;6.394;2023-03-21T17:11:15;11.00;99.90
52209;DHT22;38507;53.132;6.394;2023-03-21T17:13:42;10.60;99.90
52209;DHT22;38507;53.132;6.394;2023-03-21T17:16:18;10.80;99.90
52209;DHT22;38507;53.132;6.394;2023-03-21T17:18:46;10.60;99.90
52209;DHT22;38507;53.132;6.394;2023-03-21T17:21:15;11.00;99.90
52209;DHT22;38507;53.132;6.394;2023-03-21T17:23:41;10.60;99.90
52209;DHT22;38507;53.132;6.394;2023-03-21T17:26:07;10.80;99.90
52209;DHT22;38507;53.132;6.394;2023-03-21T17:28:36;10.60;99.90
52209;DHT22;38507;53.132;6.394;2023-03-21T17:31:03;10.60;99.90
52209;DHT22;38507;53.132;6.394;2023-03-21T17:33:29;10.60;99.90
52209;DHT22;38507;53.132;6.394;2023-03-21T17:35:55;11.10;99.90
52209;DHT22;38507;53.132;6.394;2023-03-21T17:38:21;10.60;99.90